Tiempo atmosférico en la estación meteorológica de Belorado, Burgos (875 m.)

Fecha
DESCASC
Temp. máxima en grados centígrados (hora)
DESCASC
Temp. mínima en grados centígrados (hora)
DESCASC
Temp. media en grados centígrados
DESCASC
Racha de viento máxima en m/sg (hora)
DESCASC
Velocidad máxima media en intervalos de 10 minutos(hora)
DESCASC
Precipitaciones diarias en mm
DESCASC
Precipitaciones de 00:00 a 06:00 en mm
DESCASC
Precipitaciones de 06:00 a 12:00 en mm
DESCASC
Precipitaciones de 12:00 a 18:00 en mm
DESCASC
Precipitaciones de 18:00 a 24:00 en mm
DESCASC
23-11-2017 16.2 (15:50) 12.8 (08:10) 14.5 12.78 (07:00) 4.44 (16:20) 0 0 0 0 0
22-11-2017 14.9 (22:50) -0.3 (08:30) 7.3 11.67 (22:20) 4.72 (16:20) 0 0 0 0 0
21-11-2017 18.3 (15:40) 2.2 (03:50) 10.2 6.67 (14:20) 4.44 (13:30) 0 0 0 0 0
20-11-2017 16.8 (15:50) 1.6 (03:00) 9.2 6.11 (14:30) 4.72 (13:30) 0 0 0 0 0
19-11-2017 12.2 (15:00) -0.8 (-00:0) 5.7 5 (15:50) 3.06 (15:50) 0 0 0 0 0
18-11-2017 10.4 (15:40) 0.9 (00:00) 5.6 5.83 (15:20) 3.33 (16:10) 0 0 0 0 0
17-11-2017 14.7 (14:30) 3 (00:00) 8.8 5.83 (15:40) 3.89 (11:10) 0 0 0 0 0
16-11-2017 16.7 (14:50) 2.4 (00:00) 9.6 10.83 (07:10) 3.33 (13:40) 0 0 0 0 0
15-11-2017 13.7 (16:10) -1.7 (-00:0) 6 4.17 (23:00) 2.5 (04:00) 0 0 0 0 0
14-11-2017 7.8 (15:30) -0.5 (-00:0) 3.7 6.94 (15:40) 4.17 (10:00) 0 0 0 0 0
13-11-2017 10 (00:00) 2.5 (00:00) 6.3 8.61 (14:00) 6.39 (14:00) 1 0 0.7 0.3 0
12-11-2017 13.6 (16:10) 4.1 (00:00) 8.9 8.33 (17:50) 5.56 (17:50) 0.2 0 0 0.1 0.1
11-11-2017 12.3 (16:10) 4.3 (00:00) 8.3 4.72 (17:40) 2.78 (17:50) 0 0 0 0 0
10-11-2017 10.8 (15:50) 3.2 (00:00) 7 6.67 (19:30) 3.61 (15:20) 0.1 0 0.1 0 0
09-11-2017 7.9 (16:00) 0.5 (00:00) 4.2 8.33 (15:20) 5 (15:30) 1.3 0 0.9 0.4 0
08-11-2017 7.7 (00:10) 1.5 (00:00) 4.6 10.83 (15:40) 5.83 (15:40) 1.7 0 0.2 1.4 0.1
07-11-2017 12.9 (15:20) 2.9 (00:00) 7.9 7.78 (23:10) 4.44 (23:10) 0.6 0.5 0.1 0 0
06-11-2017 8.3 (15:20) 2.2 (00:00) 5.3 8.89 (14:50) 5.28 (15:00) 1.3 0.5 0.8 0 0
05-11-2017 9.3 (00:20) 5 (00:00) 7.2 9.17 (13:00) 5.83 (15:30) 0.4 0.1 0 0 0.3
04-11-2017 11.9 (15:00) 5.6 (00:00) 8.7 7.22 (19:00) 3.89 (19:00) 9.3 0 1.6 5.5 2.2
03-11-2017 17.6 (15:00) 6.1 (00:00) 11.9 10 (11:50) 3.33 (11:30) 0.3 0 0.1 0 0.2
02-11-2017 13.4 (16:30) 6.6 (06:40) 10 4.72 (14:50) 3.06 (14:50) 0 0 0 0 0
01-11-2017 13.9 (15:20) 2.6 (07:30) 8.2 5.83 (14:40) 3.89 (14:40) 0 0 0 0 0
31-10-2017 14.2 (14:50) 3.4 (05:20) 8.8 4.72 (17:40) 3.61 (17:40) 0 0 0 0 0
30-10-2017 12.7 (14:10) 5.2 (22:00) 8.9 8.33 (15:50) 5 (14:20) 0.7 0.4 0.3 0 0

Gráficas

Temp. máximas Temp. mínimas Temp. medias Precipitaciones Rachas de viento máximas Velocidades máximas media en intervalos de 10 minutos

Datos horarios

Fecha y hora oficial Temperatura (ºC) Velocidad del viento (km/h) Dirección del viento Racha (km/h) Dirección de racha Precipitación (mm) Presión (hPa) Tendencia (hPa) Humedad (%)
2017-11-24 23:00:00 10.6 5 Sudoeste 24 Sur 0.5 -- -- 84
2017-11-24 22:00:00 10.9 7 Sur 27 Sur 0.1 -- -- 76
2017-11-24 21:00:00 12 8 Sur 29 Sur 0 -- -- 69
2017-11-24 20:00:00 12.4 6 Sudoeste 23 Sur 0 -- -- 66
2017-11-24 19:00:00 12.3 5 Sudoeste 20 Sur 0 -- -- 64
2017-11-24 18:00:00 12.7 6 Sur 24 Sur 0 -- -- 61
2017-11-24 17:00:00 13.7 8 Sudoeste 32 Sur 0 -- -- 58
2017-11-24 16:00:00 14.2 8 Sudoeste 30 Sur 0 -- -- 58
2017-11-24 15:00:00 14.2 10 Sudoeste 42 Oeste 0 -- -- 60
2017-11-24 14:00:00 13.2 14 Sudoeste 39 Oeste 0 -- -- 64
2017-11-24 13:00:00 13.1 15 Sudoeste 41 Oeste 0 -- -- 64
2017-11-24 12:00:00 13.2 12 Sudoeste 38 Sur 0 -- -- 63
2017-11-24 11:00:00 12.5 12 Sudoeste 49 Sur 0 -- -- 69
2017-11-24 10:00:00 12.1 11 Sudoeste 33 Sur 0 -- -- 71
2017-11-24 09:00:00 11.2 9 Sudoeste 38 Sur 0 -- -- 70
2017-11-24 08:00:00 11.5 8 Sudoeste 37 Oeste 0 -- -- 67
2017-11-24 07:00:00 11.6 11 Sudoeste 38 Sur 0 -- -- 64
2017-11-24 06:00:00 12 10 Sudoeste 34 Sur 0 -- -- 60
2017-11-24 05:00:00 11.5 8 Sudoeste 31 Sur 0 -- -- 61
2017-11-24 04:00:00 11.3 18 Sur 39 Sur 0 -- -- 58
2017-11-24 03:00:00 12 14 Sur 40 Sur 0 -- -- 54
2017-11-24 02:00:00 13.8 12 Sur 34 Sur 0 -- -- 42
2017-11-24 01:00:00 14.4 7 Sudoeste 30 Sur 0 -- -- 40
2017-11-24 00:00:00 14.3 6 Sudoeste 24 Oeste 0 -- -- 41
2017-11-23 23:00:00 14.6 9 Sudoeste 30 Sur 0 -- -- 40
2017-11-23 22:00:00 14.4 7 Sur 28 Oeste 0 -- -- 40
2017-11-23 21:00:00 14.2 6 Sudoeste 24 Oeste 0 -- -- 46
2017-11-23 20:00:00 14.3 7 Sur 30 Sur 0 -- -- 50
2017-11-23 19:00:00 14.3 8 Sudoeste 28 Sur 0 -- -- 54
2017-11-23 18:00:00 14.4 9 Sudoeste 34 Sur 0 -- -- 55
2017-11-23 17:00:00 14.6 10 Sudoeste 44 Sudoeste 0 -- -- 56
2017-11-23 16:00:00 16 12 Sudoeste 44 Oeste 0 -- -- 55
2017-11-23 15:00:00 15.1 14 Sudoeste 40 Sur 0 -- -- 58
2017-11-23 14:00:00 15 13 Sudoeste 37 Sur 0 -- -- 56
2017-11-23 13:00:00 15.7 11 Sudoeste 37 Sur 0 -- -- 51
2017-11-23 12:00:00 15.4 13 Sudoeste 44 Oeste 0 -- -- 51
2017-11-23 11:00:00 14.2 15 Sudoeste 44 Oeste 0 -- -- 52
2017-11-23 10:00:00 13.9 14 Sudoeste 41 Oeste 0 -- -- 51
2017-11-23 09:00:00 13.6 13 Sudoeste 41 Oeste 0 -- -- 48
2017-11-23 08:00:00 12.9 12 Sur 41 Sur 0 -- -- 49
2017-11-23 07:00:00 14.2 15 Sudoeste 46 Oeste 0 -- -- 39
2017-11-23 06:00:00 14.1 11 Sudoeste 39 Sur 0 -- -- 37
2017-11-23 05:00:00 14.1 12 Sur 41 Sur 0 -- -- 38
2017-11-23 04:00:00 13.8 10 Sur 38 Sur 0 -- -- 38
2017-11-23 03:00:00 14.2 9 Sudoeste 33 Sur 0 -- -- 38
2017-11-23 02:00:00 13.6 7 Sudoeste 39 Oeste 0 -- -- 37
2017-11-23 01:00:00 14.2 9 Sudoeste 33 Oeste 0 -- -- 36
2017-11-23 00:00:00 14.5 9 Sur 32 Sur 0 -- -- 35
2017-11-22 23:00:00 14.7 10 Sudoeste 42 Sur 0 -- -- 35
2017-11-22 22:00:00 12.1 6 Sudoeste 24 Sur 0 -- -- 45
2017-11-22 21:00:00 5.5 2 Sudoeste 9 Norte 0 -- -- 60
2017-11-22 20:00:00 4.9 0 Calma 6 Norte 0 -- -- 58
2017-11-22 19:00:00 5.9 2 Sur 5 Sur 0 -- -- 56
2017-11-22 18:00:00 8.2 4 Este 17 Este 0 -- -- 50
2017-11-22 17:00:00 10.3 12 Este 21 Este 0 -- -- 47
2017-11-22 16:00:00 12.8 10 Este 17 Este 0 -- -- 43
2017-11-22 15:00:00 12.7 13 Este 23 Este 0 -- -- 45
2017-11-22 14:00:00 12.1 15 Este 21 Este 0 -- -- 48
2017-11-22 13:00:00 12.1 9 Este 15 Este 0 -- -- 49
2017-11-22 12:00:00 10.3 2 Nordeste 9 Este 0 -- -- 52
2017-11-22 11:00:00 7.7 0 Calma 4 Norte 0 -- -- 57
2017-11-22 10:00:00 5.5 0 Calma 6 Sur 0 -- -- 63
2017-11-22 09:00:00 1.5 0 Calma 5 Oeste 0 -- -- 69
2017-11-22 08:00:00 0.3 0 Calma 7 Sur 0 -- -- 69
2017-11-22 07:00:00 0.8 2 Sudoeste 8 Oeste 0 -- -- 68
2017-11-22 06:00:00 0.7 0 Calma 7 Oeste 0 -- -- 65
2017-11-22 05:00:00 1.4 0 Calma 5 Sur 0 -- -- 61
2017-11-22 04:00:00 2.4 0 Calma 6 Oeste 0 -- -- 60
2017-11-22 03:00:00 2.3 2 Sur 6 Sur 0 -- -- 58
2017-11-22 02:00:00 3.3 0 Calma 4 Este 0 -- -- 54
2017-11-22 01:00:00 3.7 0 Calma 16 Este 0 -- -- 54
2017-11-22 00:00:00 3.7 0 Calma 12 Oeste 0 -- -- 56
2017-11-21 23:00:00 3.7 2 Sur 11 Oeste 0 -- -- 58
2017-11-21 22:00:00 4.2 6 Sudoeste 11 Oeste 0 -- -- 57
2017-11-21 21:00:00 4.7 3 Sur 12 Oeste 0 -- -- 55
2017-11-21 20:00:00 5.6 5 Sudoeste 11 Sur 0 -- -- 53
2017-11-21 19:00:00 6.8 5 Sudoeste 11 Sur 0 -- -- 49
2017-11-21 18:00:00 10.3 2 Sudoeste 19 Este 0 -- -- 41
2017-11-21 17:00:00 14 11 Este 20 Este 0 -- -- 36
2017-11-21 16:00:00 16.5 16 Este 20 Este 0 -- -- 31
2017-11-21 15:00:00 17.9 9 Oeste 24 Oeste 0 -- -- 28
2017-11-21 14:00:00 17.2 15 Oeste 23 Oeste 0 -- -- 31
2017-11-21 13:00:00 16.4 10 Oeste 16 Oeste 0 -- -- 31
2017-11-21 12:00:00 14.9 11 Oeste 21 Oeste 0 -- -- 34
2017-11-21 11:00:00 10.5 0 Calma 9 Este 0 -- -- 41
2017-11-21 10:00:00 8.2 3 Este 8 Este 0 -- -- 45
2017-11-21 09:00:00 4.9 3 Sudoeste 7 Sur 0 -- -- 46
2017-11-21 08:00:00 3 3 Sudeste 7 Sur 0 -- -- 48
2017-11-21 07:00:00 3.1 3 Sur 9 Sur 0 -- -- 48
2017-11-21 06:00:00 3.3 3 Sur 7 Sur 0 -- -- 48
2017-11-21 05:00:00 3.6 3 Sur 7 Sur 0 -- -- 48
2017-11-21 04:00:00 2.4 0 Calma 5 Este 0 -- -- 49
2017-11-21 03:00:00 4.1 0 Calma 9 Sur 0 -- -- 44
2017-11-21 02:00:00 5.9 4 Sudoeste 10 Oeste 0 -- -- 41
2017-11-21 01:00:00 6.4 3 Sudoeste 11 Sur 0 -- -- 41
2017-11-21 00:00:00 6.5 4 Sudoeste 10 Oeste 0 -- -- 42
2017-11-20 23:00:00 6.6 3 Sudoeste 11 Oeste 0 -- -- 42
2017-11-20 22:00:00 6 5 Sur 13 Oeste 0 -- -- 43
2017-11-20 21:00:00 6.4 5 Sudoeste 13 Oeste 0 -- -- 42
2017-11-20 20:00:00 7.9 4 Sudoeste 12 Sur 0 -- -- 39
2017-11-20 19:00:00 9.1 2 Sudoeste 13 Oeste 0 -- -- 35
2017-11-20 18:00:00 10.4 4 Sudoeste 12 Oeste 0 -- -- 36
2017-11-20 17:00:00 14.9 4 Oeste 21 Oeste 0 -- -- 29
2017-11-20 16:00:00 16.3 10 Oeste 22 Oeste 0 -- -- 29
2017-11-20 15:00:00 16.2 15 Oeste 22 Oeste 0 -- -- 32
2017-11-20 14:00:00 15.7 12 Oeste 21 Oeste 0 -- -- 34
2017-11-20 13:00:00 15.4 8 Noroeste 15 Oeste 0 -- -- 37
2017-11-20 12:00:00 13.7 7 Oeste 10 Oeste 0 -- -- 41
2017-11-20 11:00:00 11.6 0 Calma 8 Sur 0 -- -- 49
2017-11-20 10:00:00 7.3 3 Sur 8 Sur 0 -- -- 57
2017-11-20 09:00:00 3.8 4 Sudoeste 9 Oeste 0 -- -- 64
2017-11-20 08:00:00 2.2 0 Calma 12 Sur 0 -- -- 67
2017-11-20 07:00:00 2.3 5 Sudoeste 13 Oeste 0 -- -- 66
2017-11-20 06:00:00 2.6 4 Sudoeste 13 Oeste 0 -- -- 63
2017-11-20 05:00:00 2.1 5 Sudoeste 14 Oeste 0 -- -- 65
2017-11-20 04:00:00 1.9 4 Sudoeste 13 Sur 0 -- -- 69
2017-11-20 03:00:00 1.7 4 Sudoeste 11 Sur 0 -- -- 70
2017-11-20 02:00:00 2.1 5 Sudoeste 12 Sur 0 -- -- 67
2017-11-20 01:00:00 2.5 4 Sudoeste 14 Oeste 0 -- -- 64
2017-11-20 00:00:00 2.2 5 Sudoeste 11 Sur 0 -- -- 64
2017-11-19 23:00:00 2.3 5 Sudoeste 10 Sur 0 -- -- 61
2017-11-19 22:00:00 2.5 3 Sudoeste 14 Oeste 0 -- -- 62
2017-11-19 21:00:00 2.7 5 Sudoeste 11 Oeste 0 -- -- 61
2017-11-19 20:00:00 3.4 5 Sur 11 Sur 0 -- -- 54
2017-11-19 19:00:00 4.7 4 Sur 9 Sur 0 -- -- 49
2017-11-19 18:00:00 6 4 Sudoeste 8 Sur 0 -- -- 44
2017-11-19 17:00:00 10 5 Nordeste 15 Este 0 -- -- 36
2017-11-19 16:00:00 11.7 8 Este 18 Este 0 -- -- 34
2017-11-19 15:00:00 12.2 6 Nordeste 14 Este 0 -- -- 31
2017-11-19 14:00:00 11.1 6 Norte 12 Norte 0 -- -- 29
2017-11-19 13:00:00 10.4 2 Sur 8 Este 0 -- -- 37
2017-11-19 12:00:00 8.6 6 Este 9 Este 0 -- -- 41
2017-11-19 11:00:00 6.9 0 Calma 7 Sur 0 -- -- 56
2017-11-19 10:00:00 3.6 2 Sur 9 Sur 0 -- -- 70
2017-11-19 09:00:00 0.5 3 Sudoeste 10 Sur 0 -- -- 80
2017-11-19 08:00:00 -0.7 3 Sur 9 Oeste 0 -- -- 85
2017-11-19 07:00:00 -0.8 3 Sudoeste 9 Oeste 0 -- -- 86
2017-11-19 06:00:00 -0.4 4 Sudoeste 10 Sur 0 -- -- 89
2017-11-19 05:00:00 -0.4 3 Sudoeste 9 Oeste 0 -- -- 90
2017-11-19 04:00:00 -0.3 2 Sudoeste 12 Sur 0 -- -- 91
2017-11-19 03:00:00 0.1 2 Sudoeste 10 Sur 0 -- -- 91
2017-11-19 02:00:00 0.6 4 Sudoeste 10 Sur 0 -- -- 91
2017-11-19 01:00:00 0.8 4 Sudoeste 9 Oeste 0 -- -- 91
2017-11-19 00:00:00 1.6 4 Sudoeste 8 Oeste 0 -- -- 91
2017-11-18 23:00:00 2.6 2 Sudoeste 6 Oeste 0 -- -- 89
2017-11-18 22:00:00 2.4 3 Sur 9 Sur 0 -- -- 88
2017-11-18 21:00:00 2.4 4 Sur 8 Sur 0 -- -- 83
2017-11-18 20:00:00 4.3 4 Este 8 Este 0 -- -- 81
2017-11-18 19:00:00 6 6 Este 13 Este 0 -- -- 74
2017-11-18 18:00:00 7.6 5 Este 13 Este 0 -- -- 72
2017-11-18 17:00:00 8.9 9 Este 17 Norte 0 -- -- 68
2017-11-18 16:00:00 9.9 10 Nordeste 21 Este 0 -- -- 66
2017-11-18 15:00:00 9.5 8 Nordeste 14 Este 0 -- -- 70
2017-11-18 14:00:00 7.8 5 Este 16 Este 0 -- -- 81
2017-11-18 13:00:00 7.1 7 Este 15 Este 0 -- -- 86
2017-11-18 12:00:00 6.5 8 Este 13 Este 0 -- -- 91
2017-11-18 11:00:00 5.9 8 Este 14 Este 0 -- -- 92
2017-11-18 10:00:00 4.6 3 Este 10 Este 0 -- -- 92
2017-11-18 09:00:00 3.2 6 Este 12 Este 0 -- -- 91
2017-11-18 08:00:00 1.5 10 Este 13 Este 0 -- -- 87
2017-11-18 07:00:00 1.9 3 Sur 8 Sur 0 -- -- 85
2017-11-18 06:00:00 1.8 3 Sur 8 Sur 0 -- -- 85
2017-11-18 05:00:00 2.1 4 Sur 8 Este 0 -- -- 85
2017-11-18 04:00:00 2.9 4 Sudeste 8 Sur 0 -- -- 85
2017-11-18 03:00:00 3.4 3 Sur 6 Sur 0 -- -- 87
2017-11-18 02:00:00 3 3 Sur 8 Oeste 0 -- -- 88
2017-11-18 01:00:00 3 2 Sur 6 Sur 0 -- -- 87
2017-11-18 00:00:00 3.7 0 Calma 11 Este 0 -- -- 87
2017-11-17 23:00:00 4.2 9 Este 12 Este 0 -- -- 85
2017-11-17 22:00:00 4.3 8 Este 10 Este 0 -- -- 79
2017-11-17 21:00:00 5.1 4 Este 8 Este 0 -- -- 73
2017-11-17 20:00:00 5.6 6 Este 12 Este 0 -- -- 69
2017-11-17 19:00:00 7 9 Este 12 Este 0 -- -- 64
2017-11-17 18:00:00 9.1 9 Este 10 Este 0 -- -- 55
2017-11-17 17:00:00 12.6 10 Este 18 Este 0 -- -- 44
2017-11-17 16:00:00 13.9 13 Este 21 Este 0 -- -- 39
2017-11-17 15:00:00 14.4 10 Nordeste 19 Este 0 -- -- 38
2017-11-17 14:00:00 14.1 9 Norte 14 Norte 0 -- -- 39
2017-11-17 13:00:00 13.1 7 Nordeste 18 Este 0 -- -- 41
2017-11-17 12:00:00 12.3 11 Este 19 Este 0 -- -- 43
2017-11-17 11:00:00 11.1 13 Este 17 Este 0 -- -- 48
2017-11-17 10:00:00 9.2 5 Este 8 Este 0 -- -- 60
2017-11-17 09:00:00 4.4 4 Sur 9 Oeste 0 -- -- 63
2017-11-17 08:00:00 3.1 4 Sudoeste 10 Sur 0 -- -- 65
2017-11-17 07:00:00 3.2 5 Sur 9 Sur 0 -- -- 64
2017-11-17 06:00:00 3.5 5 Sudoeste 10 Sur 0 -- -- 64
2017-11-17 05:00:00 3.3 5 Sur 10 Sur 0 -- -- 66
2017-11-17 04:00:00 3.3 6 Sudoeste 10 Sur 0 -- -- 66
2017-11-17 03:00:00 3.6 5 Sur 10 Sur 0 -- -- 67
2017-11-17 02:00:00 3.7 5 Sudoeste 10 Oeste 0 -- -- 67
2017-11-17 01:00:00 3.9 3 Sudoeste 10 Sur 0 -- -- 67
2017-11-17 00:00:00 4 3 Sudoeste 9 Oeste 0 -- -- 66
2017-11-16 23:00:00 4.3 4 Sudoeste 10 Oeste 0 -- -- 64
2017-11-16 22:00:00 4.6 3 Sudoeste 8 Sur 0 -- -- 61
2017-11-16 21:00:00 5.3 5 Sudoeste 10 Sur 0 -- -- 58
2017-11-16 20:00:00 6.7 4 Sudoeste 10 Oeste 0 -- -- 57
2017-11-16 19:00:00 7.8 5 Sur 10 Sur 0 -- -- 52
2017-11-16 18:00:00 11 3 Este 10 Este 0 -- -- 46
2017-11-16 17:00:00 14.4 8 Nordeste 15 Este 0 -- -- 36
2017-11-16 16:00:00 16.5 8 Norte 13 Norte 0 -- -- 34
2017-11-16 15:00:00 16.6 7 Nordeste 17 Este 0 -- -- 34
2017-11-16 14:00:00 16.4 9 Este 18 Este 0 -- -- 34
2017-11-16 13:00:00 15.8 9 Norte 13 Norte 0 -- -- 36
2017-11-16 12:00:00 15.1 5 Este 9 Este 0 -- -- 37
2017-11-16 11:00:00 11.8 0 Calma 8 Sur 0 -- -- 46
2017-11-16 10:00:00 8.4 3 Sudoeste 10 Sur 0 -- -- 55
2017-11-16 09:00:00 4.7 6 Sur 14 Sur 0 -- -- 61
2017-11-16 08:00:00 2.9 6 Sudoeste 39 Sur 0 -- -- 66
2017-11-16 07:00:00 2.9 6 Sudoeste 14 Sur 0 -- -- 66
2017-11-16 06:00:00 2.7 6 Sudoeste 14 Sur 0 -- -- 66
2017-11-16 05:00:00 2.8 6 Sudoeste 14 Sur 0 -- -- 66
2017-11-16 04:00:00 2.8 7 Sur 14 Sur 0 -- -- 65
2017-11-16 03:00:00 2.7 6 Sudoeste 14 Sur 0 -- -- 65
2017-11-16 02:00:00 2.7 6 Sur 14 Sur 0 -- -- 63
2017-11-16 01:00:00 2.8 7 Sudoeste 14 Sur 0 -- -- 61
2017-11-16 00:00:00 2.9 7 Sudoeste 14 Sur 0 -- -- 60
2017-11-15 23:00:00 3.3 6 Sudoeste 15 Sur 0 -- -- 58
2017-11-15 22:00:00 3.4 3 Sudoeste 14 Sur 0 -- -- 57
2017-11-15 21:00:00 3.7 6 Sudoeste 14 Sur 0 -- -- 55
2017-11-15 20:00:00 4 6 Sudoeste 13 Oeste 0.1 -- -- 54
2017-11-15 19:00:00 4.8 6 Sudoeste 13 Sur 0 -- -- 51
2017-11-15 18:00:00 6.5 5 Sudoeste 12 Sur 0 -- -- 49
2017-11-15 17:00:00 11.7 5 Norte 8 Oeste 0 -- -- 32
2017-11-15 16:00:00 13.6 3 Noroeste 8 Norte 0 -- -- 28
2017-11-15 15:00:00 12.1 5 Oeste 10 Oeste 0 -- -- 29
2017-11-15 14:00:00 11.1 3 Oeste 12 Oeste 0 -- -- 29
2017-11-15 13:00:00 10.2 5 Oeste 10 Oeste 0 -- -- 30
2017-11-15 12:00:00 8 7 Oeste 9 Oeste 0 -- -- 34
2017-11-15 11:00:00 6.2 2 Sur 5 Sur 0 -- -- 50
2017-11-15 10:00:00 2.6 4 Sur 13 Sur 0 -- -- 66
2017-11-15 09:00:00 -0.3 5 Sudoeste 11 Sur 0 -- -- 76
2017-11-15 08:00:00 -1.2 5 Sur 11 Sur 0 -- -- 79
2017-11-15 07:00:00 -1 5 Sudoeste 9 Sur 0 -- -- 83
2017-11-15 06:00:00 -0.7 3 Sudoeste 8 Oeste 0 -- -- 85
2017-11-15 05:00:00 -1.5 3 Sudoeste 10 Este 0 -- -- 86
2017-11-15 04:00:00 -1 9 Este 11 Este 0 -- -- 88
2017-11-15 03:00:00 -1.4 3 Sudoeste 10 Sur 0 -- -- 86
2017-11-15 02:00:00 -1.1 4 Sudoeste 9 Sur 0 -- -- 86
2017-11-15 01:00:00 -0.5 2 Este 8 Este 0 -- -- 85
2017-11-15 00:00:00 -0.2 6 Este 13 Este 0 -- -- 85
2017-11-14 23:00:00 0.2 7 Este 13 Este 0 -- -- 83
2017-11-14 22:00:00 0.4 6 Este 13 Este 0 -- -- 82
2017-11-14 21:00:00 0.9 7 Este 10 Este 0 -- -- 79
2017-11-14 20:00:00 1.1 6 Este 12 Este 0 -- -- 76
2017-11-14 19:00:00 2.8 8 Este 15 Este 0 -- -- 72
2017-11-14 18:00:00 4.3 9 Nordeste 20 Norte 0 -- -- 65
2017-11-14 17:00:00 6.3 9 Nordeste 23 Este 0 -- -- 59
2017-11-14 16:00:00 7.6 11 Nordeste 25 Este 0 -- -- 50
2017-11-14 15:00:00 7.4 12 Este 22 Este 0 -- -- 53
2017-11-14 14:00:00 6.9 13 Este 23 Este 0 -- -- 55
2017-11-14 13:00:00 6.5 14 Este 22 Este 0 -- -- 57
2017-11-14 12:00:00 6.3 10 Nordeste 24 Norte 0 -- -- 61
2017-11-14 11:00:00 5.3 14 Este 22 Este 0 -- -- 69
2017-11-14 10:00:00 5.1 15 Este 22 Este 0 -- -- 74
2017-11-14 09:00:00 3.9 10 Este 18 Este 0 -- -- 80
2017-11-14 08:00:00 2.8 7 Nordeste 11 Este 0 -- -- 83
2017-11-14 07:00:00 2.8 5 Este 12 Sur 0 -- -- 83
2017-11-14 06:00:00 2.7 6 Este 14 Este 0 -- -- 85
2017-11-14 05:00:00 2.5 9 Este 13 Este 0 -- -- 85
2017-11-14 04:00:00 2.2 7 Este 12 Este 0 -- -- 85
2017-11-14 03:00:00 2 9 Este 13 Este 0 -- -- 84
2017-11-14 02:00:00 2.3 6 Este 17 Este 0 -- -- 86
2017-11-14 01:00:00 2.3 9 Este 15 Este 0 -- -- 88
2017-11-14 00:00:00 2.7 9 Este 14 Este 0 -- -- 88
2017-11-13 23:00:00 2.9 6 Este 17 Este 0 -- -- 88
2017-11-13 22:00:00 2.6 6 Este 10 Este 0 -- -- 88
2017-11-13 21:00:00 2.6 6 Este 22 Este 0 -- -- 86
2017-11-13 20:00:00 2.8 9 Nordeste 19 Norte 0 -- -- 82
2017-11-13 19:00:00 3 8 Nordeste 18 Norte 0 -- -- 79
2017-11-13 18:00:00 3.5 9 Norte 22 Norte 0 -- -- 80
2017-11-13 17:00:00 4.1 11 Nordeste 28 Norte 0 -- -- 82
2017-11-13 16:00:00 4.9 15 Norte 24 Norte 0 -- -- 80
2017-11-13 15:00:00 4.9 19 Norte 28 Norte 0 -- -- 78
2017-11-13 14:00:00 4.3 23 Norte 31 Norte 0 -- -- 85
2017-11-13 13:00:00 4.7 13 Nordeste 27 Este 0.3 -- -- 89
2017-11-13 12:00:00 4.3 14 Nordeste 26 Norte 0.4 -- -- 88
2017-11-13 11:00:00 4.2 8 Nordeste 19 Norte 0.1 -- -- 85
2017-11-13 10:00:00 4.3 14 Norte 25 Norte 0.1 -- -- 83
2017-11-13 09:00:00 4.4 16 Norte 28 Norte 0 -- -- 85
2017-11-13 08:00:00 4.8 12 Norte 22 Norte 0 -- -- 85
2017-11-13 07:00:00 5.3 5 Norte 19 Norte 0.1 -- -- 85
2017-11-13 06:00:00 5.5 7 Noroeste 29 Norte 0 -- -- 82
2017-11-13 05:00:00 5.9 10 Norte 22 Norte 0 -- -- 79
2017-11-13 04:00:00 6.4 13 Norte 26 Norte 0 -- -- 78
2017-11-13 03:00:00 7 16 Norte 24 Norte 0 -- -- 78
2017-11-13 02:00:00 7.8 17 Norte 29 Norte 0 -- -- 79
2017-11-13 01:00:00 9.1 14 Oeste 28 Norte 0 -- -- 78
2017-11-13 00:00:00 10 6 Oeste 21 Oeste 0 -- -- 77
2017-11-12 23:00:00 10.1 14 Oeste 26 Oeste 0 -- -- 77
2017-11-12 22:00:00 10.1 5 Oeste 20 Oeste 0 -- -- 77
2017-11-12 21:00:00 10.5 12 Oeste 23 Oeste 0 -- -- 79
2017-11-12 20:00:00 10.3 6 Oeste 17 Oeste 0 -- -- 81
2017-11-12 19:00:00 10 5 Sudoeste 12 Oeste 0.1 -- -- 85
2017-11-12 18:00:00 10.4 11 Noroeste 30 Oeste 0.1 -- -- 79
2017-11-12 17:00:00 12.2 10 Oeste 21 Oeste 0 -- -- 58
2017-11-12 16:00:00 13.2 5 Oeste 20 Oeste 0 -- -- 55
2017-11-12 15:00:00 13.1 6 Oeste 21 Oeste 0 -- -- 58
2017-11-12 14:00:00 11.6 12 Oeste 22 Oeste 0 -- -- 63
2017-11-12 13:00:00 11.6 8 Oeste 22 Sur 0 -- -- 63
2017-11-12 12:00:00 10.8 4 Sudoeste 18 Sur 0 -- -- 70
2017-11-12 11:00:00 8.7 4 Sur 17 Sur 0 -- -- 75
2017-11-12 10:00:00 7.4 5 Sudoeste 13 Oeste 0 -- -- 80
2017-11-12 09:00:00 5.5 4 Sudoeste 11 Oeste 0 -- -- 84
2017-11-12 08:00:00 4.8 2 Sudoeste 7 Sur 0 -- -- 83
2017-11-12 07:00:00 6.5 0 Calma 10 Oeste 0 -- -- 83
2017-11-12 06:00:00 6.4 2 Sudoeste 5 Sur 0 -- -- 85
2017-11-12 05:00:00 6.4 0 Calma 6 Sur 0 -- -- 85
2017-11-12 04:00:00 6.5 2 Sudoeste 7 Sur 0 -- -- 85
2017-11-12 03:00:00 6.5 3 Sudoeste 12 Sur 0 -- -- 86
2017-11-12 02:00:00 5 6 Sudoeste 16 Oeste 0 -- -- 86
2017-11-12 01:00:00 4.1 5 Sudoeste 15 Oeste 0 -- -- 86
2017-11-12 00:00:00 4.3 4 Sur 11 Oeste 0 -- -- 85
2017-11-11 23:00:00 4.8 4 Sudoeste 14 Sur 0 -- -- 85
2017-11-11 22:00:00 5 4 Sudoeste 11 Oeste 0 -- -- 84
2017-11-11 21:00:00 5 5 Sudoeste 13 Oeste 0 -- -- 83
2017-11-11 20:00:00 5.6 5 Sudoeste 12 Oeste 0 -- -- 81
2017-11-11 19:00:00 7.2 3 Sudoeste 14 Oeste 0 -- -- 73
2017-11-11 18:00:00 9.1 9 Oeste 17 Oeste 0 -- -- 67
2017-11-11 17:00:00 10.9 6 Oeste 13 Oeste 0 -- -- 60
2017-11-11 16:00:00 12.2 4 Oeste 13 Oeste 0 -- -- 58
2017-11-11 15:00:00 11 3 Sudoeste 11 Sur 0 -- -- 64
2017-11-11 14:00:00 10 4 Oeste 12 Oeste 0 -- -- 69
2017-11-11 13:00:00 9.8 4 Oeste 9 Oeste 0 -- -- 66
2017-11-11 12:00:00 9.6 3 Sudoeste 13 Noroeste 0 -- -- 69
2017-11-11 11:00:00 9 3 Norte 12 Oeste 0 -- -- 73
2017-11-11 10:00:00 8.5 6 Oeste 10 Oeste 0 -- -- 78
2017-11-11 09:00:00 7.7 3 Sudoeste 12 Oeste 0 -- -- 82
2017-11-11 08:00:00 7.7 8 Oeste 15 Oeste 0 -- -- 82
2017-11-11 07:00:00 7.8 5 Oeste 12 Oeste 0 -- -- 82
2017-11-11 06:00:00 7.6 3 Sudoeste 11 Oeste 0 -- -- 83
2017-11-11 05:00:00 7.6 2 Sur 9 Oeste 0 -- -- 83
2017-11-11 04:00:00 7.7 3 Sudoeste 10 Oeste 0 -- -- 83
2017-11-11 03:00:00 8 3 Sur 8 Sur 0 -- -- 78
2017-11-11 02:00:00 8.3 0 Calma 9 Oeste 0 -- -- 79
2017-11-11 01:00:00 8.4 2 Oeste 7 Oeste 0 -- -- 82
2017-11-11 00:00:00 8.4 2 Sudoeste 6 Sudoeste 0 -- -- 82
2017-11-10 23:00:00 8.7 3 Oeste 12 Oeste 0 -- -- 80
2017-11-10 22:00:00 8.8 3 Oeste 14 Oeste 0 -- -- 81
2017-11-10 21:00:00 8.4 2 Sudoeste 17 Norte 0 -- -- 85
2017-11-10 20:00:00 8.7 8 Norte 24 Oeste 0 -- -- 85
2017-11-10 19:00:00 8.7 4 Noroeste 10 Oeste 0 -- -- 84
2017-11-10 18:00:00 9.3 6 Noroeste 18 Oeste 0 -- -- 83
2017-11-10 17:00:00 10.3 10 Norte 20 Oeste 0 -- -- 85
2017-11-10 16:00:00 10.6 9 Norte 21 Norte 0 -- -- 88
2017-11-10 15:00:00 10.6 11 Noroeste 18 Oeste 0 -- -- 90
2017-11-10 14:00:00 10 9 Oeste 14 Oeste 0 -- -- 90
2017-11-10 13:00:00 9.7 7 Oeste 13 Oeste 0 -- -- 90
2017-11-10 12:00:00 9.1 5 Oeste 12 Oeste 0 -- -- 90
2017-11-10 11:00:00 8.7 3 Oeste 9 Oeste 0 -- -- 93
2017-11-10 10:00:00 7.6 0 Calma 5 Sur 0 -- -- 94
2017-11-10 09:00:00 6.5 2 Sur 13 Oeste 0 -- -- 94
2017-11-10 08:00:00 5.8 4 Oeste 13 Oeste 0.1 -- -- 93
2017-11-10 07:00:00 5.3 0 Calma 7 Oeste 0 -- -- 91
2017-11-10 06:00:00 5.2 0 Calma 5 Norte 0 -- -- 90
2017-11-10 05:00:00 4.9 2 Sur 5 Oeste 0 -- -- 89
2017-11-10 04:00:00 4.4 0 Calma 6 Oeste 0 -- -- 89
2017-11-10 03:00:00 4.2 0 Calma 6 Oeste 0 -- -- 88
2017-11-10 02:00:00 4 0 Calma 7 Sur 0 -- -- 87
2017-11-10 01:00:00 3.7 0 Calma 5 Este 0 -- -- 85
2017-11-10 00:00:00 3.2 4 Este 6 Este 0 -- -- 85
2017-11-09 23:00:00 2.2 2 Sudeste 10 Sur 0 -- -- 86
2017-11-09 22:00:00 0.6 4 Sudoeste 9 Sur 0 -- -- 86
2017-11-09 21:00:00 1.7 5 Sudoeste 8 Sur 0 -- -- 82
2017-11-09 20:00:00 2.8 5 Sudoeste 10 Oeste 0 -- -- 80
2017-11-09 19:00:00 3.7 5 Norte 15 Norte 0 -- -- 73
2017-11-09 18:00:00 4.9 8 Norte 21 Norte 0 -- -- 70
2017-11-09 17:00:00 6.5 15 Norte 25 Noroeste 0 -- -- 64
2017-11-09 16:00:00 7.4 12 Norte 30 Norte 0 -- -- 64
2017-11-09 15:00:00 6.3 11 Noroeste 22 Oeste 0 -- -- 73
2017-11-09 14:00:00 6 8 Norte 21 Norte 0.2 -- -- 78
2017-11-09 13:00:00 5.1 8 Norte 19 Norte 0.2 -- -- 81
2017-11-09 12:00:00 4.9 4 Norte 10 Norte 0.7 -- -- 83
2017-11-09 11:00:00 4.6 2 Sudoeste 14 Sur 0 -- -- 84
2017-11-09 10:00:00 4 6 Sudoeste 16 Sur 0.1 -- -- 87
2017-11-09 09:00:00 3.6 3 Oeste 8 Oeste 0.1 -- -- 86
2017-11-09 08:00:00 3.4 3 Oeste 12 Oeste 0 -- -- 85
2017-11-09 07:00:00 3.1 3 Sudoeste 9 Sur 0 -- -- 86
2017-11-09 06:00:00 3.1 5 Sudoeste 12 Oeste 0 -- -- 85
2017-11-09 05:00:00 3.1 6 Oeste 12 Oeste 0 -- -- 85
2017-11-09 04:00:00 3.1 0 Calma 8 Oeste 0 -- -- 87
2017-11-09 03:00:00 2.3 2 Sudoeste 9 Sur 0 -- -- 88
2017-11-09 02:00:00 2.7 0 Calma 7 Oeste 0 -- -- 89
2017-11-09 01:00:00 2.4 0 Calma 10 Oeste 0 -- -- 88
2017-11-09 00:00:00 2.3 4 Sudoeste 9 Sur 0 -- -- 89
2017-11-08 23:00:00 2 0 Calma 8 Sur 0 -- -- 88
2017-11-08 22:00:00 1.9 3 Sudoeste 10 Oeste 0 -- -- 87
2017-11-08 21:00:00 2.6 5 Oeste 10 Oeste 0.1 -- -- 86
2017-11-08 20:00:00 2.7 2 Sudoeste 6 Oeste 0 -- -- 86
2017-11-08 19:00:00 2.9 5 Oeste 12 Norte 0 -- -- 85
2017-11-08 18:00:00 3 0 Calma 15 Sur 0 -- -- 82
2017-11-08 17:00:00 3 7 Sudoeste 30 Norte 0.5 -- -- 87
2017-11-08 16:00:00 3.2 18 Noroeste 39 Oeste 0.6 -- -- 85
2017-11-08 15:00:00 5.8 13 Noroeste 37 Norte 0.3 -- -- 78
2017-11-08 14:00:00 6 18 Oeste 35 Oeste 0 -- -- 73
2017-11-08 13:00:00 6 6 Sudoeste 27 Oeste 0 -- -- 75
2017-11-08 12:00:00 5.9 9 Oeste 23 Oeste 0 -- -- 73
2017-11-08 11:00:00 5.8 16 Oeste 28 Oeste 0 -- -- 73
2017-11-08 10:00:00 5.5 9 Oeste 15 Oeste 0 -- -- 76
2017-11-08 09:00:00 4.7 4 Sudoeste 13 Sudoeste 0.1 -- -- 79
2017-11-08 08:00:00 4.1 11 Oeste 21 Oeste 0 -- -- 83
2017-11-08 07:00:00 4.8 5 Oeste 13 Oeste 0.1 -- -- 85
2017-11-08 06:00:00 4.8 3 Sudoeste 10 Sur 0 -- -- 83
2017-11-08 05:00:00 5.3 8 Oeste 13 Oeste 0 -- -- 81
2017-11-08 04:00:00 5.7 5 Oeste 12 Oeste 0 -- -- 77
2017-11-08 03:00:00 6.2 10 Oeste 16 Oeste 0 -- -- 74
2017-11-08 02:00:00 6.2 0 Calma 14 Noroeste 0 -- -- 75
2017-11-08 01:00:00 6.6 7 Noroeste 19 Norte 0 -- -- 73
2017-11-08 00:00:00 7.6 11 Oeste 28 Oeste 0 -- -- 78
2017-11-07 23:00:00 8.2 13 Oeste 23 Oeste 0 -- -- 79
2017-11-07 22:00:00 8.3 3 Sudoeste 13 Oeste 0 -- -- 81
2017-11-07 21:00:00 8.4 8 Oeste 21 Oeste 0 -- -- 81
2017-11-07 20:00:00 7.8 3 Oeste 21 Norte 0 -- -- 82
2017-11-07 19:00:00 8.9 14 Norte 20 Norte 0 -- -- 67
2017-11-07 18:00:00 10.8 3 Oeste 17 Oeste 0 -- -- 55
2017-11-07 17:00:00 11.5 9 Oeste 20 Sur 0 -- -- 52
2017-11-07 16:00:00 12.7 9 Oeste 23 Oeste 0 -- -- 49
2017-11-07 15:00:00 12.5 10 Oeste 24 Oeste 0 -- -- 48
2017-11-07 14:00:00 11.9 10 Oeste 22 Oeste 0 -- -- 50
2017-11-07 13:00:00 10.8 10 Oeste 22 Oeste 0 -- -- 56
2017-11-07 12:00:00 9.6 7 Oeste 17 Oeste 0 -- -- 61
2017-11-07 11:00:00 7.8 8 Sudoeste 18 Oeste 0 -- -- 70
2017-11-07 10:00:00 6.2 4 Sudoeste 13 Oeste 0 -- -- 76
2017-11-07 09:00:00 3.8 3 Sudoeste 10 Oeste 0 -- -- 88
2017-11-07 08:00:00 3 4 Sudoeste 11 Oeste 0.1 -- -- 90
2017-11-07 07:00:00 3.2 2 Sudoeste 9 Sudoeste 0 -- -- 91
2017-11-07 06:00:00 3.3 3 Sudoeste 13 Oeste 0 -- -- 91
2017-11-07 05:00:00 4.2 0 Calma 6 Oeste 0 -- -- 91
2017-11-07 04:00:00 4.3 0 Calma 4 Sur 0 -- -- 91
2017-11-07 03:00:00 4.3 0 Calma 4 Este 0 -- -- 91
2017-11-07 02:00:00 4.2 0 Calma -- -- -- -- -- 89
2017-11-07 01:00:00 4.4 0 Calma 5 Sur 0.1 -- -- 86
2017-11-07 00:00:00 4.3 0 Calma 5 Este 0 -- -- 84
2017-11-06 23:00:00 3.2 2 Sur 10 Oeste 0 -- -- 88
2017-11-06 22:00:00 2.5 2 Sudoeste 6 Sur 0 -- -- 86
2017-11-06 21:00:00 3.5 0 Calma 5 Oeste 0 -- -- 87
2017-11-06 20:00:00 4.1 0 Calma 11 Norte 0 -- -- 85
2017-11-06 19:00:00 5 8 Nordeste 16 Norte 0 -- -- 80
2017-11-06 18:00:00 5.8 9 Norte 24 Norte 0 -- -- 79
2017-11-06 17:00:00 7.4 12 Norte 23 Norte 0 -- -- 69
2017-11-06 16:00:00 7.5 13 Norte 29 Norte 0 -- -- 76
2017-11-06 15:00:00 8 19 Norte 32 Norte 0 -- -- 69
2017-11-06 14:00:00 7.4 16 Norte 28 Norte 0 -- -- 75
2017-11-06 13:00:00 7 12 Noroeste 27 Norte 0 -- -- 80
2017-11-06 12:00:00 7.4 15 Norte 25 Noroeste 0 -- -- 76
2017-11-06 11:00:00 5.9 9 Noroeste 24 Oeste 0.6 -- -- 84
2017-11-06 10:00:00 5.4 4 Oeste 13 Oeste 0 -- -- 84
2017-11-06 09:00:00 5.2 4 Oeste 13 Oeste 0 -- -- 85
2017-11-06 08:00:00 5.1 6 Oeste 15 Norte 0 -- -- 85
2017-11-06 07:00:00 5 9 Noroeste 18 Oeste 0.2 -- -- 86
2017-11-06 06:00:00 5.1 10 Oeste 18 Oeste 0 -- -- 86
2017-11-06 05:00:00 5.4 12 Oeste 19 Oeste 0 -- -- 86
2017-11-06 04:00:00 5.5 6 Sudoeste 15 Oeste 0.1 -- -- 88
2017-11-06 03:00:00 5.5 4 Sudoeste 14 Norte 0.1 -- -- 89
2017-11-06 02:00:00 5.8 4 Sudoeste 12 Oeste 0.2 -- -- 87
2017-11-06 01:00:00 6 8 Oeste 15 Oeste 0.1 -- -- 85
2017-11-06 00:00:00 5.8 2 Oeste 9 Oeste 0.3 -- -- 84
2017-11-05 23:00:00 5.9 4 Sudoeste 12 Oeste 0 -- -- 83
2017-11-05 22:00:00 6 5 Oeste 14 Oeste 0 -- -- 82
2017-11-05 21:00:00 6.1 5 Oeste 21 Oeste 0 -- -- 79
2017-11-05 20:00:00 6.5 9 Oeste 29 Oeste 0 -- -- 76
2017-11-05 19:00:00 6.5 21 Oeste 31 Oeste 0 -- -- 73
2017-11-05 18:00:00 7 9 Oeste 30 Oeste 0 -- -- 70
2017-11-05 17:00:00 7.5 15 Oeste 27 Oeste 0 -- -- 70
2017-11-05 16:00:00 7.9 13 Oeste 32 Oeste 0 -- -- 69
2017-11-05 15:00:00 8.3 15 Noroeste 30 Oeste 0 -- -- 68
2017-11-05 14:00:00 8.4 18 Oeste 29 Oeste 0 -- -- 68
2017-11-05 13:00:00 8.9 18 Oeste 33 Norte 0 -- -- 70
2017-11-05 12:00:00 8 13 Oeste 18 Oeste 0 -- -- 70
2017-11-05 11:00:00 7.4 7 Oeste 18 Oeste 0 -- -- 70
2017-11-05 10:00:00 7.3 12 Oeste 17 Oeste 0 -- -- 73
2017-11-05 09:00:00 6 5 Oeste 14 Oeste 0 -- -- 82
2017-11-05 08:00:00 5.4 6 Oeste 19 Oeste 0 -- -- 83
2017-11-05 07:00:00 5.2 6 Sudoeste 13 Oeste 0 -- -- 81
2017-11-05 06:00:00 5.2 5 Sudoeste 19 Oeste 0 -- -- 81
2017-11-05 05:00:00 6.6 4 Sudoeste 20 Norte 0 -- -- 76
2017-11-05 04:00:00 7.3 17 Noroeste 33 Oeste 0 -- -- 82
2017-11-05 03:00:00 8.5 7 Noroeste 15 Oeste 0.1 -- -- 87
2017-11-05 02:00:00 8.8 4 Oeste 15 Oeste 0 -- -- 88
2017-11-05 01:00:00 8.9 5 Oeste 13 Oeste 0 -- -- 87
2017-11-05 00:00:00 9.2 3 Oeste 13 Oeste 0 -- -- 85
2017-11-04 23:00:00 9.1 4 Sudoeste 11 Sur 0 -- -- 85
2017-11-04 22:00:00 9.2 2 Oeste 10 Oeste 0 -- -- 88
2017-11-04 21:00:00 9.7 3 Sudoeste 7 Oeste 0.1 -- -- 89
2017-11-04 20:00:00 9.7 3 Noroeste 19 Norte 1.1 -- -- 90
2017-11-04 19:00:00 10 14 Noroeste 26 Oeste 1 -- -- 88
2017-11-04 18:00:00 11.5 0 Calma 5 Oeste 0.1 -- -- 84
2017-11-04 17:00:00 11.7 5 Oeste 8 Sur 0 -- -- 83
2017-11-04 16:00:00 11.2 2 Sudoeste 12 Oeste 0.7 -- -- 85
2017-11-04 15:00:00 11.9 4 Oeste 9 Oeste 0.1 -- -- 84
2017-11-04 14:00:00 11.6 3 Oeste 8 Oeste 1.6 -- -- 88
2017-11-04 13:00:00 10.2 2 Sudoeste 9 Oeste 3 -- -- 88
2017-11-04 12:00:00 10.3 3 Oeste 11 Oeste 0.4 -- -- 87
2017-11-04 11:00:00 9.6 0 Calma 6 Oeste 0.3 -- -- 88
2017-11-04 10:00:00 8.5 0 Calma 3 Este 0.9 -- -- 88
2017-11-04 09:00:00 8 0 Calma 4 Norte 0 -- -- 88
2017-11-04 08:00:00 7.5 0 Calma 5 Oeste 0 -- -- 88
2017-11-04 07:00:00 7.2 2 Sur 5 Sur 0 -- -- 89
2017-11-04 06:00:00 6.2 0 Calma 6 Oeste 0 -- -- 88
2017-11-04 05:00:00 5.9 0 Calma 9 Sur 0 -- -- 86
2017-11-04 04:00:00 6.5 4 Sudoeste 10 Sur 0 -- -- 87
2017-11-04 03:00:00 6.6 4 Sudoeste 9 Sur 0 -- -- 85
2017-11-04 02:00:00 7.2 4 Sur 8 Este 0 -- -- 85
2017-11-04 01:00:00 7.5 2 Sudoeste 10 Oeste 0 -- -- 85
2017-11-04 00:00:00 7.6 4 Sudoeste 10 Sur 0 -- -- 85
2017-11-03 23:00:00 8.1 4 Sudoeste 10 Sur 0 -- -- 83
2017-11-03 22:00:00 8.8 4 Sur 10 Sur 0 -- -- 82
2017-11-03 21:00:00 10 3 Sur 18 Este 0 -- -- 78
2017-11-03 20:00:00 10.7 4 Sudeste 18 Este 0.2 -- -- 67
2017-11-03 19:00:00 10.9 3 Sudoeste 9 Oeste 0 -- -- 58
2017-11-03 18:00:00 13.6 2 Sudoeste 12 Oeste 0 -- -- 49
2017-11-03 17:00:00 15.4 4 Sudoeste 23 Oeste 0 -- -- 46
2017-11-03 16:00:00 15.9 5 Sudoeste 24 Oeste 0 -- -- 46
2017-11-03 15:00:00 17.3 8 Sudoeste 32 Sur 0 -- -- 43
2017-11-03 14:00:00 17 9 Sudoeste 34 Oeste 0 -- -- 45
2017-11-03 13:00:00 16.4 10 Sudoeste 32 Oeste 0 -- -- 47
2017-11-03 12:00:00 15.2 12 Sudoeste 36 Sudoeste 0 -- -- 51
2017-11-03 11:00:00 14.2 11 Sudoeste 31 Oeste 0 -- -- 54
2017-11-03 10:00:00 12.1 6 Oeste 16 Oeste 0 -- -- 69
2017-11-03 09:00:00 10.3 2 Sudoeste 25 Oeste 0 -- -- 85
2017-11-03 08:00:00 8 0 Calma 5 Oeste 0.1 -- -- 89
2017-11-03 07:00:00 7.7 0 Calma 5 Oeste 0 -- -- 88
2017-11-03 06:00:00 7.1 0 Calma 6 Sur 0 -- -- 88
2017-11-03 05:00:00 6.9 3 Noroeste 7 Norte 0 -- -- 88
2017-11-03 04:00:00 6.7 0 Calma 5 Sur 0 -- -- 86
2017-11-03 03:00:00 6.1 0 Calma 6 Oeste 0 -- -- 85
2017-11-03 02:00:00 6.8 2 Sudoeste 6 Sur 0 -- -- 85